Time;durP1;ratioP1;P1;durP2;ratioP2;P2;SDS_P1;SDS_P2;PMS_P1;PMS_P2;Temp;Humidity;BMP_temperature;BMP_pressure;BME280_temperature;BME280_humidity;BME280_pressure;Samples;Min_cycle;Max_cycle;Signal;HPM_P1;HPM_P2
2023/04/24 00:01:00;;;;;;;;;;;20.30;74.00;;;;;;6242649;23;19907;-70
2023/04/24 00:03:27;;;;;;;;;;;20.40;73.60;;;;;;6242788;23;19908;-70
2023/04/24 00:05:54;;;;;;;;;;;20.40;71.70;;;;;;6219261;22;19930;-70
2023/04/24 00:08:22;;;;;;;;;;;20.40;72.80;;;;;;6242475;22;20460;-70
2023/04/24 00:10:49;;;;;;;;;;;20.40;72.60;;;;;;6242871;22;20014;-70
2023/04/24 00:13:15;;;;;;;;;;;20.50;71.90;;;;;;6243739;22;20389;-69
2023/04/24 00:15:42;;;;;;;;;;;20.50;72.20;;;;;;6245939;22;19904;-69
2023/04/24 00:18:09;;;;;;;;;;;20.60;72.70;;;;;;6245991;22;19904;-70
2023/04/24 00:20:35;;;;;;;;;;;20.70;72.50;;;;;;6244937;22;19912;-72
2023/04/24 00:23:02;;;;;;;;;;;20.60;71.20;;;;;;6242521;22;19907;-72
2023/04/24 00:25:29;;;;;;;;;;;20.70;70.40;;;;;;6241428;23;19986;-73
2023/04/24 00:27:56;;;;;;;;;;;20.70;68.30;;;;;;6242414;22;20012;-73
2023/04/24 00:30:22;;;;;;;;;;;20.70;67.90;;;;;;6242435;22;19994;-73
2023/04/24 00:32:49;;;;;;;;;;;20.70;70.20;;;;;;6240759;22;19915;-72
2023/04/24 00:35:16;;;;;;;;;;;20.80;70.10;;;;;;6241565;22;20234;-73
2023/04/24 00:37:43;;;;;;;;;;;20.80;70.00;;;;;;6241456;22;19911;-71
2023/04/24 00:40:10;;;;;;;;;;;20.80;69.80;;;;;;6242131;22;19914;-72
2023/04/24 00:42:36;;;;;;;;;;;20.80;70.40;;;;;;6240201;22;20188;-71
2023/04/24 00:45:03;;;;;;;;;;;20.80;70.00;;;;;;6242436;22;20364;-72
2023/04/24 00:47:30;;;;;;;;;;;20.80;70.30;;;;;;6240587;22;19926;-71
2023/04/24 00:49:57;;;;;;;;;;;20.80;70.30;;;;;;6240747;23;19918;-70
2023/04/24 00:52:24;;;;;;;;;;;20.80;70.40;;;;;;6241751;22;19911;-71
2023/04/24 00:54:50;;;;;;;;;;;20.80;70.50;;;;;;6239656;22;20245;-71
2023/04/24 00:57:17;;;;;;;;;;;20.80;68.50;;;;;;6240198;22;19923;-72
2023/04/24 00:59:44;;;;;;;;;;;20.80;68.80;;;;;;6215300;23;20002;-72
2023/04/24 01:02:11;;;;;;;;;;;20.80;70.20;;;;;;6242315;22;19915;-71
2023/04/24 01:04:37;;;;;;;;;;;20.80;71.50;;;;;;6240681;23;19954;-73
2023/04/24 01:07:09;;;;;;;;;;;20.80;71.50;;;;;;6240807;22;19916;-73
2023/04/24 01:09:39;;;;;;;;;;;20.80;69.60;;;;;;6216179;23;19911;-74
2023/04/24 01:12:06;;;;;;;;;;;20.80;70.50;;;;;;6242244;23;19930;-73
2023/04/24 01:14:33;;;;;;;;;;;20.80;71.80;;;;;;6242566;23;20394;-73
2023/04/24 01:17:00;;;;;;;;;;;20.80;72.00;;;;;;6215848;23;19914;-73
2023/04/24 01:19:26;;;;;;;;;;;21.00;70.10;;;;;;6241911;23;20235;-73
2023/04/24 01:21:54;;;;;;;;;;;21.10;69.10;;;;;;6241433;23;19918;-73
2023/04/24 01:24:21;;;;;;;;;;;21.10;69.80;;;;;;6242586;23;19908;-73
2023/04/24 01:26:47;;;;;;;;;;;21.10;70.00;;;;;;6241993;22;20268;-72
2023/04/24 01:29:14;;;;;;;;;;;21.00;70.50;;;;;;6241714;23;19962;-72
2023/04/24 01:31:40;;;;;;;;;;;20.90;70.40;;;;;;6241835;23;19914;-71
2023/04/24 01:34:07;;;;;;;;;;;20.80;69.70;;;;;;6214621;23;19910;-71
2023/04/24 01:36:35;;;;;;;;;;;20.90;71.00;;;;;;6241892;22;20277;-72
2023/04/24 01:39:02;;;;;;;;;;;20.80;69.30;;;;;;6215375;23;19971;-71
2023/04/24 01:41:29;;;;;;;;;;;20.90;70.30;;;;;;6241947;23;19983;-73
2023/04/24 01:43:55;;;;;;;;;;;21.00;69.30;;;;;;6213332;23;19914;-74
2023/04/24 01:46:22;;;;;;;;;;;21.00;69.00;;;;;;6240944;22;19915;-73
2023/04/24 01:48:48;;;;;;;;;;;21.10;69.60;;;;;;6214824;23;20362;-72
2023/04/24 01:51:15;;;;;;;;;;;21.00;68.40;;;;;;6213036;23;20339;-73
2023/04/24 01:53:42;;;;;;;;;;;21.00;66.00;;;;;;6240966;23;19908;-72
2023/04/24 01:56:08;;;;;;;;;;;21.10;66.50;;;;;;6239606;23;19911;-74
2023/04/24 01:58:35;;;;;;;;;;;21.10;67.90;;;;;;6214303;23;19904;-74
2023/04/24 02:01:02;;;;;;;;;;;21.10;72.30;;;;;;6242048;23;20243;-74
2023/04/24 02:03:28;;;;;;;;;;;21.10;75.40;;;;;;6239982;23;19915;-73
2023/04/24 02:05:55;;;;;;;;;;;21.00;74.60;;;;;;6241059;22;20350;-70
2023/04/24 02:08:22;;;;;;;;;;;21.00;76.60;;;;;;6240888;22;19919;-73
2023/04/24 02:10:48;;;;;;;;;;;21.00;77.70;;;;;;6239709;23;19914;-72
2023/04/24 02:13:15;;;;;;;;;;;20.90;77.40;;;;;;6240836;23;19908;-72
2023/04/24 02:15:41;;;;;;;;;;;20.90;77.90;;;;;;6241089;23;19914;-72
2023/04/24 02:18:08;;;;;;;;;;;20.90;77.60;;;;;;6240211;22;19962;-72
2023/04/24 02:20:35;;;;;;;;;;;20.80;77.80;;;;;;6240883;23;19915;-72
2023/04/24 02:23:02;;;;;;;;;;;20.80;77.20;;;;;;6241926;23;20319;-72
2023/04/24 02:25:28;;;;;;;;;;;20.80;77.00;;;;;;6239832;23;19914;-76
2023/04/24 02:27:55;;;;;;;;;;;20.70;77.40;;;;;;6240508;22;20533;-73
2023/04/24 02:30:21;;;;;;;;;;;20.70;77.80;;;;;;6240553;23;19908;-73
2023/04/24 02:32:48;;;;;;;;;;;20.70;77.90;;;;;;6241082;23;20315;-73
2023/04/24 02:35:15;;;;;;;;;;;20.60;78.80;;;;;;6242029;23;19930;-72
2023/04/24 02:37:41;;;;;;;;;;;20.60;78.90;;;;;;6239476;22;19950;-73
2023/04/24 02:40:08;;;;;;;;;;;20.50;78.40;;;;;;6239861;23;19911;-71
2023/04/24 02:42:35;;;;;;;;;;;20.50;78.50;;;;;;6237271;23;20113;-70
2023/04/24 02:45:02;;;;;;;;;;;20.50;78.70;;;;;;6240964;23;19914;-72
2023/04/24 02:47:28;;;;;;;;;;;20.50;77.50;;;;;;6214524;23;20433;-71
2023/04/24 02:49:55;;;;;;;;;;;20.60;78.00;;;;;;6239113;23;19904;-71
2023/04/24 02:52:21;;;;;;;;;;;20.50;77.20;;;;;;6240856;23;19908;-72
2023/04/24 02:54:48;;;;;;;;;;;20.60;76.00;;;;;;6241311;23;19908;-72
2023/04/24 02:57:15;;;;;;;;;;;20.60;76.60;;;;;;6241072;22;19907;-72
2023/04/24 02:59:41;;;;;;;;;;;20.70;76.80;;;;;;6241181;23;19926;-72
2023/04/24 03:02:08;;;;;;;;;;;20.70;76.70;;;;;;6240366;23;19943;-71
2023/04/24 03:04:35;;;;;;;;;;;20.70;76.80;;;;;;6239992;23;19986;-71
2023/04/24 03:07:02;;;;;;;;;;;20.70;77.30;;;;;;6242411;22;19927;-72
2023/04/24 03:09:28;;;;;;;;;;;20.70;76.20;;;;;;6242830;23;20299;-69
2023/04/24 03:11:56;;;;;;;;;;;20.70;76.80;;;;;;6242078;23;19996;-72
2023/04/24 03:14:23;;;;;;;;;;;20.80;76.30;;;;;;6241423;23;19903;-71
2023/04/24 03:16:50;;;;;;;;;;;20.80;77.20;;;;;;6215930;23;19907;-71
2023/04/24 03:19:16;;;;;;;;;;;20.80;77.00;;;;;;6240581;23;20349;-71
2023/04/24 03:21:43;;;;;;;;;;;20.80;77.40;;;;;;6241074;23;19978;-71
2023/04/24 03:24:10;;;;;;;;;;;20.70;76.30;;;;;;6241536;23;19963;-71
2023/04/24 03:26:36;;;;;;;;;;;20.80;77.00;;;;;;6214850;22;20228;-71
2023/04/24 03:29:03;;;;;;;;;;;20.80;76.30;;;;;;6241965;23;20221;-72
2023/04/24 03:31:30;;;;;;;;;;;20.80;77.20;;;;;;6242945;23;19918;-71
2023/04/24 03:33:57;;;;;;;;;;;20.80;77.00;;;;;;6215767;23;19912;-71
2023/04/24 03:36:23;;;;;;;;;;;20.80;76.90;;;;;;6216517;22;19907;-73
2023/04/24 03:38:50;;;;;;;;;;;20.80;76.80;;;;;;6242908;23;19911;-73
2023/04/24 03:41:17;;;;;;;;;;;20.70;77.30;;;;;;6243114;23;19914;-72
2023/04/24 03:43:43;;;;;;;;;;;20.70;78.00;;;;;;6240601;23;19907;-72
2023/04/24 03:46:10;;;;;;;;;;;20.80;76.70;;;;;;6242622;23;19903;-72
2023/04/24 03:48:37;;;;;;;;;;;20.70;76.80;;;;;;6242686;22;19911;-72
2023/04/24 03:51:04;;;;;;;;;;;20.70;76.80;;;;;;6242799;23;19935;-72
2023/04/24 03:53:30;;;;;;;;;;;20.70;77.20;;;;;;6242964;23;19908;-72
2023/04/24 03:55:57;;;;;;;;;;;20.70;77.50;;;;;;6242952;23;19923;-73
2023/04/24 03:58:24;;;;;;;;;;;20.70;77.70;;;;;;6242870;22;19930;-73
2023/04/24 04:00:51;;;;;;;;;;;20.80;77.20;;;;;;6236564;22;19931;-66
2023/04/24 04:03:17;;;;;;;;;;;20.80;78.10;;;;;;6212316;23;19942;-66
2023/04/24 04:05:44;;;;;;;;;;;20.70;77.30;;;;;;6212388;23;19990;-66
2023/04/24 04:08:11;;;;;;;;;;;20.80;77.40;;;;;;6212072;23;19916;-66
2023/04/24 04:10:37;;;;;;;;;;;20.80;77.60;;;;;;6212181;23;19903;-66
2023/04/24 04:13:06;;;;;;;;;;;20.70;76.90;;;;;;6212066;23;19908;-66
2023/04/24 04:15:32;;;;;;;;;;;20.80;77.70;;;;;;6212660;23;19961;-67
2023/04/24 04:17:59;;;;;;;;;;;20.80;76.90;;;;;;6211734;23;19908;-67
2023/04/24 04:20:26;;;;;;;;;;;20.80;76.70;;;;;;6213154;23;20670;-67
2023/04/24 04:22:52;;;;;;;;;;;20.80;76.40;;;;;;6212281;23;19904;-66
2023/04/24 04:25:19;;;;;;;;;;;20.80;76.20;;;;;;6212754;23;19930;-65
2023/04/24 04:27:48;;;;;;;;;;;20.80;75.70;;;;;;6185852;23;20228;-65
2023/04/24 04:30:15;;;;;;;;;;;20.80;75.90;;;;;;6212056;23;19938;-65
2023/04/24 04:32:41;;;;;;;;;;;20.90;75.60;;;;;;6212059;23;19908;-66
2023/04/24 04:35:09;;;;;;;;;;;21.00;75.40;;;;;;6212028;23;20245;-65
2023/04/24 04:37:35;;;;;;;;;;;21.10;75.10;;;;;;6212295;23;19911;-66
2023/04/24 04:40:11;;;;;;;;;;;21.10;75.30;;;;;;6212436;23;19979;-65
2023/04/24 04:42:41;;;;;;;;;;;21.10;75.30;;;;;;6209838;23;20054;-66
2023/04/24 04:45:11;;;;;;;;;;;21.10;74.80;;;;;;6211676;23;20290;-66
2023/04/24 04:47:38;;;;;;;;;;;21.10;76.30;;;;;;6211777;23;19966;-65
2023/04/24 04:50:05;;;;;;;;;;;21.10;76.10;;;;;;6212442;23;19912;-66
2023/04/24 04:52:32;;;;;;;;;;;21.10;75.50;;;;;;6212164;23;19904;-65
2023/04/24 04:54:58;;;;;;;;;;;21.10;76.30;;;;;;6212208;23;19970;-66
2023/04/24 04:57:25;;;;;;;;;;;21.10;76.60;;;;;;6211240;23;19961;-65
2023/04/24 04:59:52;;;;;;;;;;;21.10;78.30;;;;;;6184818;23;20258;-65
2023/04/24 05:02:18;;;;;;;;;;;21.10;78.80;;;;;;6210654;23;19915;-66
2023/04/24 05:04:45;;;;;;;;;;;21.10;78.60;;;;;;6211769;23;19938;-66
2023/04/24 05:07:12;;;;;;;;;;;21.10;78.50;;;;;;6211010;23;19916;-67
2023/04/24 05:09:39;;;;;;;;;;;21.00;77.90;;;;;;6211940;23;19904;-66
2023/04/24 05:12:06;;;;;;;;;;;21.00;78.80;;;;;;6211769;23;20339;-67
2023/04/24 05:14:33;;;;;;;;;;;20.90;78.60;;;;;;6211947;23;19904;-68
2023/04/24 05:17:00;;;;;;;;;;;20.90;78.50;;;;;;6211418;23;19908;-67
2023/04/24 05:19:26;;;;;;;;;;;20.90;78.50;;;;;;6211736;23;20245;-66
2023/04/24 05:21:53;;;;;;;;;;;20.90;78.40;;;;;;6211881;23;19935;-66
2023/04/24 05:24:20;;;;;;;;;;;20.90;77.90;;;;;;6211863;23;20345;-67
2023/04/24 05:26:47;;;;;;;;;;;20.90;78.50;;;;;;6209105;23;19923;-67
2023/04/24 05:29:13;;;;;;;;;;;20.90;78.20;;;;;;6211513;23;19914;-67
2023/04/24 05:31:40;;;;;;;;;;;20.90;78.30;;;;;;6211193;23;19904;-67
2023/04/24 05:34:07;;;;;;;;;;;20.80;77.60;;;;;;6209541;23;19912;-67
2023/04/24 05:36:34;;;;;;;;;;;20.90;78.50;;;;;;6209463;23;19912;-66
2023/04/24 05:39:00;;;;;;;;;;;20.80;78.30;;;;;;6211010;23;19907;-67
2023/04/24 05:41:27;;;;;;;;;;;20.80;78.50;;;;;;6211684;23;20371;-67
2023/04/24 05:43:54;;;;;;;;;;;20.80;78.50;;;;;;6206228;23;19908;-67
2023/04/24 05:46:21;;;;;;;;;;;20.80;78.90;;;;;;6210545;23;19966;-67
2023/04/24 05:48:47;;;;;;;;;;;20.80;78.90;;;;;;6211578;23;20026;-68
2023/04/24 05:51:14;;;;;;;;;;;20.80;78.80;;;;;;6209800;23;19912;-68
2023/04/24 05:53:41;;;;;;;;;;;20.70;78.80;;;;;;6211173;23;19912;-67
2023/04/24 05:56:07;;;;;;;;;;;20.70;78.80;;;;;;6210968;23;20397;-66
2023/04/24 05:58:34;;;;;;;;;;;20.70;78.30;;;;;;6209201;23;19935;-66
2023/04/24 06:01:03;;;;;;;;;;;20.70;78.70;;;;;;6210761;23;19990;-66
2023/04/24 06:03:29;;;;;;;;;;;20.70;78.10;;;;;;6211558;23;19908;-66
2023/04/24 06:05:56;;;;;;;;;;;20.70;80.10;;;;;;6210779;23;20285;-66
2023/04/24 06:08:23;;;;;;;;;;;20.70;81.20;;;;;;6210641;23;19916;-66
2023/04/24 06:10:49;;;;;;;;;;;20.60;82.10;;;;;;6210649;23;20332;-67
2023/04/24 06:13:16;;;;;;;;;;;20.60;82.90;;;;;;6184330;23;20235;-67
2023/04/24 06:15:43;;;;;;;;;;;20.50;83.10;;;;;;6209437;23;19908;-65
2023/04/24 06:18:10;;;;;;;;;;;20.50;83.40;;;;;;6208687;23;20342;-66
2023/04/24 06:20:37;;;;;;;;;;;20.40;83.50;;;;;;6211534;23;19912;-67
2023/04/24 06:23:04;;;;;;;;;;;20.40;83.80;;;;;;6210829;23;19939;-67
2023/04/24 06:25:30;;;;;;;;;;;20.40;84.30;;;;;;6210595;23;19987;-67
2023/04/24 06:27:57;;;;;;;;;;;20.30;83.80;;;;;;6210781;23;19934;-67
2023/04/24 06:30:24;;;;;;;;;;;20.30;83.90;;;;;;6210745;23;19958;-67
2023/04/24 06:32:51;;;;;;;;;;;20.30;83.70;;;;;;6210821;23;19915;-67
2023/04/24 06:35:18;;;;;;;;;;;20.30;83.10;;;;;;6210638;23;20232;-67
2023/04/24 06:37:44;;;;;;;;;;;20.30;82.90;;;;;;6209385;23;19912;-66
2023/04/24 06:40:11;;;;;;;;;;;20.30;83.50;;;;;;6210411;23;19907;-67
2023/04/24 06:42:38;;;;;;;;;;;20.30;83.00;;;;;;6210515;23;19936;-67
2023/04/24 06:45:05;;;;;;;;;;;20.30;83.10;;;;;;6213421;23;19912;-67
2023/04/24 06:47:32;;;;;;;;;;;20.30;82.90;;;;;;6211964;23;19920;-66
2023/04/24 06:49:58;;;;;;;;;;;20.20;83.00;;;;;;6211051;23;20323;-66
2023/04/24 06:52:25;;;;;;;;;;;20.20;82.70;;;;;;6213288;23;19915;-66
2023/04/24 06:54:52;;;;;;;;;;;20.20;82.40;;;;;;6212987;23;19911;-66
2023/04/24 06:57:19;;;;;;;;;;;20.20;82.60;;;;;;6210699;23;19904;-66
2023/04/24 06:59:46;;;;;;;;;;;20.20;83.20;;;;;;6184655;23;19930;-65
2023/04/24 07:02:16;;;;;;;;;;;20.10;84.70;;;;;;6210321;23;20293;-65
2023/04/24 07:04:43;;;;;;;;;;;20.10;85.20;;;;;;6210634;23;19916;-65
2023/04/24 07:07:12;;;;;;;;;;;19.90;85.40;;;;;;6211934;23;19920;-66
2023/04/24 07:09:40;;;;;;;;;;;19.80;85.90;;;;;;6186909;23;19911;-66
2023/04/24 07:12:07;;;;;;;;;;;19.80;86.70;;;;;;6212439;23;19904;-65
2023/04/24 07:14:34;;;;;;;;;;;19.70;86.40;;;;;;6186025;23;19908;-65
2023/04/24 07:17:01;;;;;;;;;;;19.70;85.60;;;;;;6212361;23;19915;-66
2023/04/24 07:19:28;;;;;;;;;;;19.70;85.50;;;;;;6183584;23;19914;-65
2023/04/24 07:21:54;;;;;;;;;;;19.60;85.30;;;;;;6211676;23;20248;-64
2023/04/24 07:24:21;;;;;;;;;;;19.60;86.30;;;;;;6212076;23;19978;-63
2023/04/24 07:26:48;;;;;;;;;;;19.40;85.50;;;;;;6209106;23;19912;-64
2023/04/24 07:29:15;;;;;;;;;;;19.40;85.80;;;;;;6211625;23;19908;-64
2023/04/24 07:31:42;;;;;;;;;;;19.30;86.30;;;;;;6210819;23;19908;-64
2023/04/24 07:34:09;;;;;;;;;;;19.30;86.10;;;;;;6212385;23;19966;-64
2023/04/24 07:36:35;;;;;;;;;;;19.30;86.60;;;;;;6213055;23;20261;-65
2023/04/24 07:39:02;;;;;;;;;;;19.30;86.60;;;;;;6211803;23;19908;-66
2023/04/24 07:41:29;;;;;;;;;;;19.30;86.40;;;;;;6210942;23;19910;-66
2023/04/24 07:43:56;;;;;;;;;;;19.30;86.10;;;;;;6209090;23;19916;-65
2023/04/24 07:46:23;;;;;;;;;;;19.20;86.10;;;;;;6210710;23;19915;-64
2023/04/24 07:48:49;;;;;;;;;;;19.20;86.30;;;;;;6211877;23;19966;-65
2023/04/24 07:51:16;;;;;;;;;;;19.20;86.70;;;;;;6182622;23;20335;-66
2023/04/24 07:53:43;;;;;;;;;;;19.20;86.90;;;;;;6207039;23;19962;-66
2023/04/24 07:56:10;;;;;;;;;;;19.10;86.30;;;;;;6185286;23;19943;-66
2023/04/24 07:58:36;;;;;;;;;;;19.10;86.40;;;;;;6212484;23;20318;-65
2023/04/24 08:01:03;;;;;;;;;;;19.10;86.50;;;;;;6209513;23;20002;-67
2023/04/24 08:03:30;;;;;;;;;;;19.00;86.20;;;;;;6211632;23;19919;-67
2023/04/24 08:05:57;;;;;;;;;;;19.10;86.70;;;;;;6210932;23;19914;-67
2023/04/24 08:08:23;;;;;;;;;;;19.00;86.60;;;;;;6211988;23;20298;-66
2023/04/24 08:10:50;;;;;;;;;;;19.00;86.30;;;;;;6212019;23;19904;-67
2023/04/24 08:13:17;;;;;;;;;;;19.00;86.30;;;;;;6183998;23;19914;-66
2023/04/24 08:15:44;;;;;;;;;;;19.00;86.20;;;;;;6210966;23;19907;-68
2023/04/24 08:18:12;;;;;;;;;;;19.00;86.60;;;;;;6211030;23;19908;-67
2023/04/24 08:20:39;;;;;;;;;;;19.00;86.60;;;;;;6211540;23;19907;-67
2023/04/24 08:23:05;;;;;;;;;;;19.00;86.50;;;;;;6212243;23;19939;-68
2023/04/24 08:25:32;;;;;;;;;;;19.00;86.60;;;;;;6211787;23;20346;-68
2023/04/24 08:27:59;;;;;;;;;;;19.00;86.60;;;;;;6211723;23;19966;-67
2023/04/24 08:30:26;;;;;;;;;;;19.00;86.00;;;;;;6211497;23;20339;-67
2023/04/24 08:32:52;;;;;;;;;;;19.00;86.10;;;;;;6207148;23;19908;-67
2023/04/24 08:35:19;;;;;;;;;;;19.10;86.20;;;;;;6210443;23;19980;-67
2023/04/24 08:37:46;;;;;;;;;;;19.00;86.10;;;;;;6210243;23;19910;-67
2023/04/24 08:40:16;;;;;;;;;;;19.00;86.40;;;;;;6184331;23;19908;-67
2023/04/24 08:42:45;;;;;;;;;;;19.00;86.60;;;;;;6206291;23;19904;-66
2023/04/24 08:45:12;;;;;;;;;;;19.00;86.70;;;;;;6208627;23;19904;-67
2023/04/24 08:47:42;;;;;;;;;;;19.00;86.90;;;;;;6210831;23;20239;-67
2023/04/24 08:50:09;;;;;;;;;;;19.00;86.60;;;;;;6185472;23;19944;-67
2023/04/24 08:52:36;;;;;;;;;;;19.00;86.80;;;;;;6211726;23;19990;-67
2023/04/24 08:55:03;;;;;;;;;;;19.10;87.00;;;;;;6208931;23;19903;-67
2023/04/24 08:57:30;;;;;;;;;;;19.10;87.30;;;;;;6183478;23;19908;-66
2023/04/24 08:59:57;;;;;;;;;;;19.10;87.60;;;;;;6211008;23;20295;-66
2023/04/24 09:02:24;;;;;;;;;;;19.00;87.90;;;;;;6210366;23;19928;-66
2023/04/24 09:04:51;;;;;;;;;;;19.00;88.60;;;;;;6185410;23;19983;-66
2023/04/24 09:07:18;;;;;;;;;;;18.90;89.10;;;;;;6210333;23;19963;-66
2023/04/24 09:09:45;;;;;;;;;;;18.90;89.60;;;;;;6185311;23;19919;-65
2023/04/24 09:12:12;;;;;;;;;;;18.90;90.10;;;;;;6211473;23;19986;-65
2023/04/24 09:14:42;;;;;;;;;;;18.80;91.10;;;;;;6187608;23;19911;-64
2023/04/24 09:17:09;;;;;;;;;;;18.80;91.90;;;;;;6213536;23;20247;-65
2023/04/24 09:19:36;;;;;;;;;;;18.70;92.40;;;;;;6211475;23;20319;-63
2023/04/24 09:22:06;;;;;;;;;;;18.60;92.70;;;;;;6210807;23;19950;-66
2023/04/24 09:24:34;;;;;;;;;;;18.50;93.10;;;;;;6211179;23;20353;-66
2023/04/24 09:27:04;;;;;;;;;;;18.50;93.40;;;;;;6211243;23;19982;-66
2023/04/24 09:29:32;;;;;;;;;;;18.40;93.60;;;;;;6211053;23;20322;-66
2023/04/24 09:31:59;;;;;;;;;;;18.40;93.70;;;;;;6210155;23;19908;-67
2023/04/24 09:34:26;;;;;;;;;;;18.50;93.80;;;;;;6208783;23;19907;-67
2023/04/24 09:36:53;;;;;;;;;;;18.50;93.90;;;;;;6208899;23;20247;-67
2023/04/24 09:39:20;;;;;;;;;;;18.40;93.90;;;;;;6183574;23;19939;-67
2023/04/24 09:41:49;;;;;;;;;;;18.40;93.90;;;;;;6210674;23;20537;-67
2023/04/24 09:44:17;;;;;;;;;;;18.30;93.90;;;;;;6210104;23;20243;-66
2023/04/24 09:46:45;;;;;;;;;;;18.30;94.10;;;;;;6210251;23;19998;-66
2023/04/24 09:49:16;;;;;;;;;;;18.30;94.20;;;;;;6183405;23;19911;-66
2023/04/24 09:51:42;;;;;;;;;;;18.30;94.30;;;;;;6208140;23;19935;-65
2023/04/24 09:54:19;;;;;;;;;;;18.30;94.30;;;;;;6183778;23;19907;-66
2023/04/24 09:56:47;;;;;;;;;;;18.20;94.20;;;;;;6183973;23;19986;-67
2023/04/24 10:20:40;;;;;;;;;;;18.20;94.70;;;;;;6250864;22;19922;-67
2023/04/24 10:23:06;;;;;;;;;;;18.10;94.90;;;;;;6243380;23;19915;-68
2023/04/24 10:25:34;;;;;;;;;;;18.20;94.90;;;;;;6243050;23;19911;-67
2023/04/24 10:28:01;;;;;;;;;;;18.10;94.90;;;;;;6241342;22;20330;-65
2023/04/24 10:30:28;;;;;;;;;;;18.20;95.00;;;;;;6243325;23;19907;-68
2023/04/24 10:32:55;;;;;;;;;;;18.20;95.00;;;;;;6242680;23;19908;-67
2023/04/24 10:35:26;;;;;;;;;;;18.20;94.90;;;;;;6243150;23;19908;-68
2023/04/24 10:37:56;;;;;;;;;;;18.20;94.70;;;;;;6214912;23;19903;-67
2023/04/24 10:40:42;;;;;;;;;;;18.10;94.60;;;;;;6242489;23;19903;-69
2023/04/24 10:43:12;;;;;;;;;;;18.20;94.80;;;;;;6243333;23;20046;-69
2023/04/24 10:45:39;;;;;;;;;;;18.20;95.00;;;;;;6241440;23;19939;-66
2023/04/24 10:48:10;;;;;;;;;;;18.20;94.90;;;;;;6241396;22;19916;-67
2023/04/24 10:50:44;;;;;;;;;;;18.20;94.70;;;;;;6240219;23;19908;-68
2023/04/24 10:53:17;;;;;;;;;;;18.10;94.60;;;;;;6242134;23;19931;-66
2023/04/24 10:55:50;;;;;;;;;;;18.20;94.60;;;;;;6240715;23;19908;-66
2023/04/24 10:58:17;;;;;;;;;;;18.20;94.60;;;;;;6241297;22;19907;-68
2023/04/24 11:00:44;;;;;;;;;;;18.20;94.60;;;;;;6216041;23;19912;-67
2023/04/24 11:03:25;;;;;;;;;;;18.20;94.80;;;;;;6243516;23;19915;-67
2023/04/24 11:06:12;;;;;;;;;;;18.20;94.80;;;;;;6242802;23;19907;-67
2023/04/24 11:08:40;;;;;;;;;;;18.20;94.60;;;;;;6241739;22;19951;-68
2023/04/24 11:11:10;;;;;;;;;;;18.20;94.50;;;;;;6242364;23;20312;-68
2023/04/24 11:13:49;;;;;;;;;;;18.20;94.50;;;;;;6243212;23;19934;-67
2023/04/24 11:16:21;;;;;;;;;;;18.20;94.20;;;;;;6243189;22;19990;-67
2023/04/24 11:18:52;;;;;;;;;;;18.10;94.10;;;;;;6243311;23;19907;-67
2023/04/24 11:57:09;;;;;;;;;;;18.00;94.40;;;;;;6261998;22;21003;-66
2023/04/24 11:59:37;;;;;;;;;;;18.00;94.50;;;;;;6272085;22;19976;-66
2023/04/24 12:02:05;;;;;;;;;;;17.90;94.40;;;;;;6272884;22;19919;-66
2023/04/24 12:04:41;;;;;;;;;;;17.90;94.40;;;;;;6273029;22;19986;-67
2023/04/24 12:07:10;;;;;;;;;;;17.90;94.20;;;;;;6220415;22;20241;-67
2023/04/24 12:09:41;;;;;;;;;;;17.90;94.30;;;;;;6245816;22;19907;-67
2023/04/24 12:12:08;;;;;;;;;;;17.80;94.30;;;;;;6272725;22;19911;-67
2023/04/24 12:15:03;;;;;;;;;;;17.80;94.30;;;;;;6273220;22;19903;-67
2023/04/24 12:17:32;;;;;;;;;;;17.80;94.20;;;;;;6240042;22;19907;-67
2023/04/24 12:20:03;;;;;;;;;;;17.80;94.30;;;;;;6272664;22;19903;-67
2023/04/24 12:22:48;;;;;;;;;;;17.70;94.10;;;;;;6271740;22;19907;-66
2023/04/24 12:25:15;;;;;;;;;;;17.70;94.20;;;;;;6272693;22;19903;-66
2023/04/24 12:27:42;;;;;;;;;;;17.70;94.20;;;;;;6272062;22;20409;-67
2023/04/24 12:30:13;;;;;;;;;;;17.70;94.30;;;;;;6272577;22;19915;-67
2023/04/24 12:32:46;;;;;;;;;;;17.70;94.40;;;;;;6272775;22;20352;-66
2023/04/24 12:35:13;;;;;;;;;;;17.70;94.40;;;;;;6272448;22;20326;-68
2023/04/24 12:37:42;;;;;;;;;;;17.70;94.40;;;;;;6245682;22;19907;-68
2023/04/24 12:40:10;;;;;;;;;;;17.70;94.40;;;;;;6272684;22;19911;-66
2023/04/24 12:42:41;;;;;;;;;;;17.70;94.50;;;;;;6271610;22;19911;-67
2023/04/24 12:45:08;;;;;;;;;;;17.70;94.20;;;;;;6271839;22;20234;-67
2023/04/24 12:47:36;;;;;;;;;;;17.70;94.30;;;;;;6244357;22;19976;-66
2023/04/24 12:50:02;;;;;;;;;;;17.70;94.40;;;;;;6272765;22;19914;-66
2023/04/24 12:52:29;;;;;;;;;;;17.60;94.50;;;;;;6272419;22;19958;-65
2023/04/24 12:54:57;;;;;;;;;;;17.70;94.50;;;;;;6248290;22;20222;-65
2023/04/24 12:59:56;;;;;;;;;;;17.70;94.70;;;;;;6271247;22;19923;-66
2023/04/24 13:02:23;;;;;;;;;;;17.70;94.60;;;;;;6248257;22;20357;-66
2023/04/24 13:04:50;;;;;;;;;;;17.70;94.70;;;;;;6275965;22;20280;-66
2023/04/24 13:07:17;;;;;;;;;;;17.70;94.60;;;;;;6275396;22;19911;-66
2023/04/24 13:09:44;;;;;;;;;;;17.70;94.50;;;;;;6275742;22;19903;-66
2023/04/24 13:12:11;;;;;;;;;;;17.60;94.50;;;;;;6274729;22;19903;-66
2023/04/24 13:14:38;;;;;;;;;;;17.60;94.40;;;;;;6275408;22;20008;-66
2023/04/24 13:17:05;;;;;;;;;;;17.60;94.40;;;;;;6274236;22;19986;-66
2023/04/24 13:19:35;;;;;;;;;;;17.60;94.30;;;;;;6274601;22;20223;-66
2023/04/24 13:22:02;;;;;;;;;;;17.50;94.40;;;;;;6274547;22;19930;-66
2023/04/24 13:24:29;;;;;;;;;;;17.60;94.50;;;;;;6274662;22;19931;-66
2023/04/24 13:26:56;;;;;;;;;;;17.50;94.30;;;;;;6274102;22;20361;-66
2023/04/24 13:29:23;;;;;;;;;;;17.50;94.30;;;;;;6275007;22;20046;-66
2023/04/24 13:31:54;;;;;;;;;;;17.50;94.40;;;;;;6275212;22;19907;-66
2023/04/24 13:34:21;;;;;;;;;;;17.50;94.30;;;;;;6274519;22;20374;-66
2023/04/24 13:36:48;;;;;;;;;;;17.40;94.20;;;;;;6274175;22;19938;-66
2023/04/24 13:39:16;;;;;;;;;;;17.40;94.30;;;;;;6274967;22;19994;-66
2023/04/24 13:41:43;;;;;;;;;;;17.40;94.30;;;;;;6274562;22;19904;-66
2023/04/24 13:44:10;;;;;;;;;;;17.40;94.40;;;;;;6275544;22;19909;-66
2023/04/24 13:46:36;;;;;;;;;;;17.40;94.40;;;;;;6275663;22;19903;-66
2023/04/24 13:49:03;;;;;;;;;;;17.40;94.40;;;;;;6275735;22;19903;-66
2023/04/24 13:51:30;;;;;;;;;;;17.40;94.40;;;;;;6275672;22;19903;-66
2023/04/24 13:53:57;;;;;;;;;;;17.40;94.30;;;;;;6275959;22;19942;-66
2023/04/24 13:56:23;;;;;;;;;;;17.40;94.40;;;;;;6275515;22;19918;-66
2023/04/24 13:58:50;;;;;;;;;;;17.30;94.40;;;;;;6248453;22;19903;-66
2023/04/24 14:01:17;;;;;;;;;;;17.40;94.40;;;;;;6275182;22;19919;-66
2023/04/24 14:03:43;;;;;;;;;;;17.30;94.40;;;;;;6275135;22;19903;-66
2023/04/24 14:06:10;;;;;;;;;;;17.30;94.30;;;;;;6275573;22;20354;-66
2023/04/24 14:08:37;;;;;;;;;;;17.40;94.40;;;;;;6275265;22;19994;-66
2023/04/24 14:11:04;;;;;;;;;;;17.40;94.40;;;;;;6275446;22;19904;-66
2023/04/24 14:13:30;;;;;;;;;;;17.30;94.40;;;;;;6247669;22;19910;-66
2023/04/24 14:15:58;;;;;;;;;;;17.30;94.30;;;;;;6274976;22;20245;-66
2023/04/24 14:18:24;;;;;;;;;;;17.30;94.30;;;;;;6274121;22;19907;-66
2023/04/24 14:20:51;;;;;;;;;;;17.30;94.40;;;;;;6274076;22;19907;-66
2023/04/24 14:23:18;;;;;;;;;;;17.30;94.20;;;;;;6273940;22;19907;-66
2023/04/24 14:25:44;;;;;;;;;;;17.20;94.20;;;;;;6275351;22;20295;-66
2023/04/24 14:28:11;;;;;;;;;;;17.20;94.30;;;;;;6275496;22;19990;-66
2023/04/24 14:30:40;;;;;;;;;;;17.20;94.30;;;;;;6275018;22;20354;-66
2023/04/24 14:33:07;;;;;;;;;;;17.20;94.20;;;;;;6275264;22;19903;-66
2023/04/24 14:35:35;;;;;;;;;;;17.20;94.40;;;;;;6274997;22;19904;-66
2023/04/24 14:38:02;;;;;;;;;;;17.10;94.40;;;;;;6273821;22;19929;-66
2023/04/24 14:40:28;;;;;;;;;;;17.10;94.40;;;;;;6274058;22;19907;-66
2023/04/24 14:42:57;;;;;;;;;;;17.10;94.40;;;;;;6274988;22;20233;-66
2023/04/24 14:45:23;;;;;;;;;;;17.10;94.50;;;;;;6274076;22;19911;-66
2023/04/24 14:47:50;;;;;;;;;;;17.20;94.50;;;;;;6274296;22;19918;-66
2023/04/24 14:50:17;;;;;;;;;;;17.10;94.50;;;;;;6275297;22;19905;-66
2023/04/24 14:52:44;;;;;;;;;;;17.20;94.40;;;;;;6275506;22;19907;-66
2023/04/24 14:55:11;;;;;;;;;;;17.10;94.40;;;;;;6274620;22;19907;-66
2023/04/24 14:57:38;;;;;;;;;;;17.20;94.40;;;;;;6274512;22;19964;-66
2023/04/24 15:00:11;;;;;;;;;;;17.20;94.50;;;;;;6273618;22;20357;-66
2023/04/24 15:02:41;;;;;;;;;;;17.10;94.50;;;;;;6276193;22;19947;-66
2023/04/24 15:05:08;;;;;;;;;;;17.20;94.70;;;;;;6277378;22;19925;-66
2023/04/24 15:07:35;;;;;;;;;;;17.20;94.70;;;;;;6249172;22;19961;-66
2023/04/24 15:10:03;;;;;;;;;;;17.20;94.70;;;;;;6276747;22;20021;-66
2023/04/24 15:12:29;;;;;;;;;;;17.20;94.80;;;;;;6275495;22;19904;-66
2023/04/24 15:14:57;;;;;;;;;;;17.20;94.70;;;;;;6276491;22;19910;-66
2023/04/24 15:17:24;;;;;;;;;;;17.20;94.70;;;;;;6276025;22;19953;-66